Time;durP1;ratioP1;P1;durP2;ratioP2;P2;SDS_P1;SDS_P2;PMS_P1;PMS_P2;Temp;Humidity;BMP_temperature;BMP_pressure;BME280_temperature;BME280_humidity;BME280_pressure;Samples;Min_cycle;Max_cycle;Signal;HPM_P1;HPM_P2
2022/08/19 00:01:43;;;;;;;18.58;14.18;;;;;;;;;;5020029;28;20568;-67
2022/08/19 00:04:11;;;;;;;25.02;17.45;;;;;;;;;;5036422;28;20039;-68
2022/08/19 00:06:37;;;;;;;24.52;18.33;;;;;;;;;;5020086;28;20566;-67
2022/08/19 00:09:04;;;;;;;21.42;17.08;;;;;;;;;;5020840;28;20032;-67
2022/08/19 00:11:31;;;;;;;28.08;17.85;;;;;;;;;;5035666;28;20028;-67
2022/08/19 00:13:56;;;;;;;30.13;19.20;;;;;;;;;;5022054;28;20033;-67
2022/08/19 00:16:23;;;;;;;27.40;17.15;;;;;;;;;;5020549;28;20144;-67
2022/08/19 00:18:48;;;;;;;24.83;17.27;;;;;;;;;;5019755;28;20135;-67
2022/08/19 00:21:14;;;;;;;23.33;15.82;;;;;;;;;;5020440;28;20676;-67
2022/08/19 00:23:40;;;;;;;28.60;17.08;;;;;;;;;;5023986;28;20786;-67
2022/08/19 00:26:06;;;;;;;30.48;17.38;;;;;;;;;;5023206;28;20082;-68
2022/08/19 00:28:32;;;;;;;28.10;21.13;;;;;;;;;;5023458;28;20319;-68
2022/08/19 00:30:58;;;;;;;31.50;22.13;;;;;;;;;;5023846;28;20032;-67
2022/08/19 00:33:23;;;;;;;42.47;29.45;;;;;;;;;;5020306;28;20037;-67
2022/08/19 00:35:48;;;;;;;43.33;27.27;;;;;;;;;;5035483;28;20104;-67
2022/08/19 00:38:14;;;;;;;37.17;23.20;;;;;;;;;;5019517;28;20032;-67
2022/08/19 00:40:41;;;;;;;38.65;23.80;;;;;;;;;;5020920;28;20765;-68
2022/08/19 00:43:08;;;;;;;28.60;17.42;;;;;;;;;;5021221;28;20525;-67
2022/08/19 00:45:35;;;;;;;28.75;17.90;;;;;;;;;;5021019;28;20560;-67
2022/08/19 00:48:04;;;;;;;34.70;21.50;;;;;;;;;;5020857;28;20036;-67
2022/08/19 00:50:29;;;;;;;46.08;27.10;;;;;;;;;;5041344;28;20262;-72
2022/08/19 00:52:55;;;;;;;41.70;26.30;;;;;;;;;;5028512;28;20448;-73
2022/08/19 00:55:22;;;;;;;45.80;25.02;;;;;;;;;;5020265;28;20055;-72
2022/08/19 00:58:02;;;;;;;40.55;25.08;;;;;;;;;;5030496;28;20117;-72
2022/08/19 01:00:28;;;;;;;31.00;15.40;;;;;;;;;;5025598;28;20036;-72
2022/08/19 01:02:53;;;;;;;22.15;12.75;;;;;;;;;;5029145;28;20919;-72
2022/08/19 01:05:21;;;;;;;25.20;13.20;;;;;;;;;;5034291;28;20528;-72
2022/08/19 01:07:47;;;;;;;27.45;17.35;;;;;;;;;;5032400;28;20116;-72
2022/08/19 01:10:15;;;;;;;47.55;32.30;;;;;;;;;;5027255;28;20044;-72
2022/08/19 01:12:40;;;;;;;57.65;36.40;;;;;;;;;;5045113;28;20040;-70
2022/08/19 01:15:06;;;;;;;38.15;24.85;;;;;;;;;;5030828;28;20286;-72
2022/08/19 01:17:32;;;;;;;42.08;23.45;;;;;;;;;;5031975;28;20048;-72
2022/08/19 01:19:58;;;;;;;35.10;21.23;;;;;;;;;;5028696;28;20089;-72
2022/08/19 01:22:23;;;;;;;30.40;20.27;;;;;;;;;;5033470;28;20328;-72
2022/08/19 01:24:49;;;;;;;30.17;21.27;;;;;;;;;;5032434;28;20040;-72
2022/08/19 01:27:14;;;;;;;31.45;22.55;;;;;;;;;;5031372;28;20032;-73
2022/08/19 01:29:40;;;;;;;38.42;23.27;;;;;;;;;;5028150;28;20037;-73
2022/08/19 01:32:07;;;;;;;34.65;23.33;;;;;;;;;;5030649;28;20302;-72
2022/08/19 01:34:33;;;;;;;33.15;23.33;;;;;;;;;;5029815;28;21943;-72
2022/08/19 01:37:00;;;;;;;35.90;25.17;;;;;;;;;;5046115;28;20029;-73
2022/08/19 01:39:25;;;;;;;39.80;25.90;;;;;;;;;;5029759;28;20603;-72
2022/08/19 01:41:54;;;;;;;39.78;26.27;;;;;;;;;;5030901;28;20140;-72
2022/08/19 01:44:23;;;;;;;37.55;24.92;;;;;;;;;;5030035;28;20455;-72
2022/08/19 01:46:48;;;;;;;38.13;25.23;;;;;;;;;;5029440;28;20669;-72
2022/08/19 01:49:15;;;;;;;47.30;29.52;;;;;;;;;;5044118;28;20060;-72
2022/08/19 01:51:40;;;;;;;51.75;33.72;;;;;;;;;;5030217;28;20028;-72
2022/08/19 01:54:06;;;;;;;42.17;29.83;;;;;;;;;;5028787;28;20770;-72
2022/08/19 01:56:31;;;;;;;43.80;31.23;;;;;;;;;;5027941;28;20055;-72
2022/08/19 01:58:59;;;;;;;47.08;30.25;;;;;;;;;;5028460;28;20484;-72
2022/08/19 02:01:25;;;;;;;40.78;29.77;;;;;;;;;;5029651;28;20062;-72
2022/08/19 02:03:53;;;;;;;42.25;29.52;;;;;;;;;;5045880;28;20370;-72
2022/08/19 02:06:18;;;;;;;45.05;30.77;;;;;;;;;;5026251;28;20494;-73
2022/08/19 02:08:45;;;;;;;44.42;28.05;;;;;;;;;;5043260;28;20028;-72
2022/08/19 02:11:17;;;;;;;41.95;26.98;;;;;;;;;;5028801;28;20040;-72
2022/08/19 02:13:43;;;;;;;;;;;;;;;;;;5032073;28;20648;-71
2022/08/19 02:16:08;;;;;;;36.67;23.02;;;;;;;;;;5030822;28;19935;-72
2022/08/19 02:18:33;;;;;;;37.08;20.92;;;;;;;;;;5032361;28;20367;-72
2022/08/19 02:20:58;;;;;;;38.50;23.27;;;;;;;;;;5029123;28;20222;-72
2022/08/19 02:23:24;;;;;;;36.35;21.02;;;;;;;;;;5043449;28;20487;-71
2022/08/19 02:25:51;;;;;;;36.72;21.77;;;;;;;;;;5033724;28;20144;-71
2022/08/19 02:28:16;;;;;;;41.92;22.27;;;;;;;;;;5028351;28;20420;-72
2022/08/19 02:30:42;;;;;;;36.67;21.05;;;;;;;;;;5045187;28;20044;-71
2022/08/19 02:33:07;;;;;;;33.30;20.05;;;;;;;;;;5029742;28;20036;-72
2022/08/19 02:35:32;;;;;;;39.85;23.83;;;;;;;;;;5029015;28;21940;-73
2022/08/19 02:40:49;;;;;;;41.42;26.30;;;;;;;;;;5027544;28;20819;-73
2022/08/19 02:43:15;;;;;;;48.28;33.17;;;;;;;;;;5028214;28;20467;-73
2022/08/19 02:45:40;;;;;;;44.65;27.67;;;;;;;;;;5043874;28;20041;-73
2022/08/19 02:48:06;;;;;;;37.78;24.35;;;;;;;;;;5028675;28;20647;-74
2022/08/19 02:50:31;;;;;;;34.78;22.83;;;;;;;;;;5028842;28;20464;-73
2022/08/19 02:52:57;;;;;;;29.95;19.85;;;;;;;;;;5040279;28;20043;-73
2022/08/19 02:55:22;;;;;;;28.83;17.98;;;;;;;;;;5031544;28;21987;-73
2022/08/19 02:57:48;;;;;;;33.67;19.80;;;;;;;;;;5031472;28;20047;-73
2022/08/19 03:00:14;;;;;;;28.70;20.00;;;;;;;;;;5028596;28;20040;-73
2022/08/19 03:02:39;;;;;;;35.83;26.70;;;;;;;;;;5017929;28;20496;-67
2022/08/19 03:05:06;;;;;;;42.42;35.95;;;;;;;;;;5017937;28;20032;-68
2022/08/19 03:07:31;;;;;;;55.60;48.45;;;;;;;;;;5017622;28;20028;-67
2022/08/19 03:09:57;;;;;;;56.97;48.90;;;;;;;;;;5018166;28;20216;-67
2022/08/19 03:12:22;;;;;;;62.05;51.15;;;;;;;;;;5019347;28;20120;-68
2022/08/19 03:14:47;;;;;;;65.65;54.03;;;;;;;;;;5017557;28;20308;-67
2022/08/19 03:17:13;;;;;;;66.65;58.08;;;;;;;;;;5018169;28;20063;-68
2022/08/19 03:19:38;;;;;;;54.42;46.03;;;;;;;;;;5017815;28;20748;-68
2022/08/19 03:22:04;;;;;;;46.55;38.42;;;;;;;;;;5020713;28;20293;-68
2022/08/19 03:24:30;;;;;;;43.60;33.90;;;;;;;;;;5020658;28;20032;-68
2022/08/19 03:26:57;;;;;;;37.78;32.55;;;;;;;;;;5035959;28;20032;-67
2022/08/19 03:29:22;;;;;;;50.05;38.45;;;;;;;;;;5025463;28;20039;-68
2022/08/19 03:31:47;;;;;;;48.83;37.25;;;;;;;;;;5020814;28;20029;-68
2022/08/19 03:34:17;;;;;;;49.85;39.03;;;;;;;;;;5020973;28;20096;-67
2022/08/19 03:36:43;;;;;;;59.13;48.30;;;;;;;;;;5020728;28;20324;-68
2022/08/19 03:39:09;;;;;;;56.65;41.08;;;;;;;;;;5022142;28;22037;-69
2022/08/19 03:41:40;;;;;;;56.45;40.75;;;;;;;;;;5022422;28;20224;-68
2022/08/19 03:44:05;;;;;;;64.50;48.75;;;;;;;;;;5033852;28;20131;-68
2022/08/19 03:46:31;;;;;;;72.57;55.00;;;;;;;;;;5021827;28;20047;-67
2022/08/19 03:48:58;;;;;;;83.57;66.50;;;;;;;;;;5024955;28;20109;-68
2022/08/19 03:51:24;;;;;;;93.97;73.65;;;;;;;;;;5021377;28;20606;-66
2022/08/19 03:53:50;;;;;;;91.18;70.45;;;;;;;;;;5020036;28;20126;-66
2022/08/19 03:56:16;;;;;;;90.65;70.15;;;;;;;;;;5020447;28;20612;-66
2022/08/19 03:58:42;;;;;;;84.70;64.82;;;;;;;;;;5021355;28;20820;-66
2022/08/19 04:01:09;;;;;;;72.53;54.00;;;;;;;;;;5023904;28;20037;-71
2022/08/19 04:03:35;;;;;;;67.13;49.22;;;;;;;;;;5034052;28;20127;-72
2022/08/19 04:06:12;;;;;;;69.90;53.40;;;;;;;;;;5033540;28;20746;-72
2022/08/19 04:08:38;;;;;;;62.88;44.88;;;;;;;;;;5041913;28;20459;-66
2022/08/19 04:11:09;;;;;;;66.05;49.03;;;;;;;;;;5021506;28;20690;-67
2022/08/19 04:13:34;;;;;;;66.57;46.17;;;;;;;;;;5018472;28;20453;-66
2022/08/19 04:16:00;;;;;;;63.70;42.42;;;;;;;;;;5019595;28;20045;-68
2022/08/19 04:18:25;;;;;;;58.13;37.90;;;;;;;;;;5014798;28;20488;-67
2022/08/19 04:20:51;;;;;;;54.67;37.42;;;;;;;;;;5021868;28;20127;-66
2022/08/19 04:23:18;;;;;;;59.40;37.45;;;;;;;;;;5022357;28;20029;-66
2022/08/19 04:25:44;;;;;;;63.95;38.97;;;;;;;;;;5020265;28;20498;-66
2022/08/19 04:28:10;;;;;;;65.00;39.67;;;;;;;;;;5021075;28;20303;-66
2022/08/19 04:30:39;;;;;;;68.50;43.13;;;;;;;;;;5020598;28;20036;-66
2022/08/19 04:33:05;;;;;;;62.17;37.08;;;;;;;;;;5019977;28;20330;-67
2022/08/19 04:35:41;;;;;;;64.15;41.42;;;;;;;;;;5032447;28;20045;-66
2022/08/19 04:38:06;;;;;;;41.53;24.13;;;;;;;;;;5017469;28;20044;-66
2022/08/19 04:43:16;;;;;;;29.27;19.80;;;;;;;;;;5017216;28;21942;-66
2022/08/19 04:45:43;;;;;;;33.40;17.42;;;;;;;;;;5024870;28;20297;-66
2022/08/19 04:48:08;;;;;;;28.35;15.20;;;;;;;;;;5019910;28;20345;-67
2022/08/19 04:50:34;;;;;;;27.92;14.93;;;;;;;;;;5023481;28;22148;-67
2022/08/19 04:52:59;;;;;;;25.50;14.70;;;;;;;;;;5023401;28;20051;-67
2022/08/19 04:55:27;;;;;;;25.73;14.38;;;;;;;;;;5019848;28;20107;-67
2022/08/19 04:57:53;;;;;;;22.50;13.27;;;;;;;;;;5036011;28;20039;-67
2022/08/19 05:00:18;;;;;;;26.48;13.95;;;;;;;;;;5019077;28;20064;-67
2022/08/19 05:02:44;;;;;;;30.02;13.75;;;;;;;;;;5029886;28;20051;-68
2022/08/19 05:05:09;;;;;;;21.85;12.45;;;;;;;;;;5019232;28;20460;-67
2022/08/19 05:07:35;;;;;;;27.33;13.27;;;;;;;;;;5032540;28;20040;-67
2022/08/19 05:10:01;;;;;;;20.80;12.90;;;;;;;;;;5020233;28;20139;-67
2022/08/19 05:12:28;;;;;;;25.00;13.05;;;;;;;;;;5035669;28;20036;-68
2022/08/19 05:14:54;;;;;;;23.88;13.88;;;;;;;;;;5015802;28;20124;-67
2022/08/19 05:17:19;;;;;;;27.50;13.85;;;;;;;;;;5020613;28;20420;-67
2022/08/19 05:22:35;;;;;;;25.60;13.27;;;;;;;;;;5021036;28;20043;-67
2022/08/19 05:25:05;;;;;;;24.15;12.57;;;;;;;;;;5020718;28;20731;-67
2022/08/19 05:27:31;;;;;;;24.15;12.52;;;;;;;;;;5019908;28;20840;-67
2022/08/19 05:29:56;;;;;;;25.60;12.05;;;;;;;;;;5007014;28;20033;-67
2022/08/19 05:32:23;;;;;;;28.58;12.23;;;;;;;;;;5033252;28;20032;-67
2022/08/19 05:34:48;;;;;;;32.00;12.63;;;;;;;;;;5018429;28;20037;-67
2022/08/19 05:37:14;;;;;;;25.40;11.70;;;;;;;;;;5019156;28;20676;-67
2022/08/19 05:39:40;;;;;;;23.90;12.35;;;;;;;;;;5019423;28;20230;-67
2022/08/19 05:42:07;;;;;;;28.13;11.43;;;;;;;;;;5019465;28;20117;-67
2022/08/19 05:44:33;;;;;;;26.48;12.05;;;;;;;;;;5017577;28;20039;-67
2022/08/19 05:46:59;;;;;;;26.20;11.75;;;;;;;;;;5017766;28;20201;-67
2022/08/19 05:49:25;;;;;;;23.85;11.65;;;;;;;;;;5017304;28;20109;-67
2022/08/19 05:51:51;;;;;;;18.75;12.10;;;;;;;;;;5017843;28;20062;-67
2022/08/19 05:54:16;;;;;;;26.33;13.65;;;;;;;;;;5022553;28;20389;-73
2022/08/19 05:56:42;;;;;;;34.35;16.17;;;;;;;;;;5031659;28;21781;-72
2022/08/19 05:59:11;;;;;;;32.70;19.92;;;;;;;;;;5046689;28;20037;-73
2022/08/19 06:01:40;;;;;;;36.33;20.13;;;;;;;;;;5032588;28;20042;-73
2022/08/19 06:04:06;;;;;;;38.55;20.38;;;;;;;;;;5031492;28;20143;-72
2022/08/19 06:06:33;;;;;;;42.40;19.75;;;;;;;;;;5046189;28;20029;-73
2022/08/19 06:08:59;;;;;;;34.75;18.45;;;;;;;;;;5049794;28;20040;-73
2022/08/19 06:11:34;;;;;;;36.10;17.10;;;;;;;;;;5044995;28;20116;-73
2022/08/19 06:14:01;;;;;;;32.38;17.13;;;;;;;;;;5029274;28;20521;-72
2022/08/19 06:16:27;;;;;;;30.20;16.33;;;;;;;;;;5029673;28;20733;-72
2022/08/19 06:18:53;;;;;;;32.70;16.23;;;;;;;;;;5044478;28;20513;-73
2022/08/19 06:21:19;;;;;;;34.90;15.02;;;;;;;;;;5027239;28;20052;-74
2022/08/19 06:23:47;;;;;;;29.45;14.82;;;;;;;;;;5028335;28;20049;-74
2022/08/19 06:26:13;;;;;;;31.02;13.02;;;;;;;;;;5042212;28;20089;-73
2022/08/19 06:28:42;;;;;;;28.88;12.50;;;;;;;;;;5032650;28;20036;-74
2022/08/19 06:31:08;;;;;;;28.50;13.07;;;;;;;;;;5022043;28;20037;-74
2022/08/19 06:33:33;;;;;;;25.80;12.57;;;;;;;;;;5030539;28;20102;-74
2022/08/19 06:35:59;;;;;;;16.70;9.48;;;;;;;;;;5033488;28;20054;-74
2022/08/19 06:38:24;;;;;;;20.63;8.48;;;;;;;;;;5032113;28;20040;-74
2022/08/19 06:40:49;;;;;;;20.08;7.78;;;;;;;;;;5033636;28;20033;-73
2022/08/19 06:43:15;;;;;;;14.40;7.40;;;;;;;;;;5028490;28;20039;-74
2022/08/19 06:45:40;;;;;;;20.13;7.90;;;;;;;;;;5028220;28;20045;-72
2022/08/19 06:48:06;;;;;;;17.88;7.18;;;;;;;;;;5040880;28;20417;-73
2022/08/19 06:50:32;;;;;;;17.58;7.10;;;;;;;;;;5037413;28;21359;-73
2022/08/19 06:52:57;;;;;;;15.48;6.57;;;;;;;;;;5017801;28;20029;-74
2022/08/19 06:55:23;;;;;;;12.48;5.90;;;;;;;;;;5016546;28;20427;-73
2022/08/19 06:57:52;;;;;;;16.20;6.50;;;;;;;;;;5017166;28;20033;-78
2022/08/19 07:00:18;;;;;;;13.57;5.60;;;;;;;;;;5029484;28;20182;-74
2022/08/19 07:02:43;;;;;;;16.77;5.85;;;;;;;;;;5030821;28;20052;-72
2022/08/19 07:05:09;;;;;;;17.48;6.65;;;;;;;;;;5015260;28;20429;-71
2022/08/19 07:07:38;;;;;;;14.40;6.15;;;;;;;;;;5013887;28;20028;-73
2022/08/19 07:10:04;;;;;;;16.05;6.57;;;;;;;;;;5016134;28;20364;-73
2022/08/19 07:12:33;;;;;;;16.25;6.30;;;;;;;;;;5014996;28;20041;-72
2022/08/19 07:14:58;;;;;;;16.63;6.50;;;;;;;;;;5015199;28;20355;-73
2022/08/19 07:17:24;;;;;;;14.63;6.15;;;;;;;;;;5031204;28;20060;-73
2022/08/19 07:19:50;;;;;;;14.45;6.00;;;;;;;;;;5028927;28;20051;-73
2022/08/19 07:22:15;;;;;;;12.48;6.57;;;;;;;;;;5016309;28;20025;-73
2022/08/19 07:24:41;;;;;;;18.30;6.95;;;;;;;;;;5029805;28;20040;-73
2022/08/19 07:27:07;;;;;;;14.10;6.15;;;;;;;;;;5015862;28;20033;-73
2022/08/19 07:29:33;;;;;;;14.90;6.55;;;;;;;;;;5009755;28;20022;-68
2022/08/19 07:32:00;;;;;;;11.75;6.25;;;;;;;;;;5007262;28;20264;-68
2022/08/19 07:34:26;;;;;;;13.50;6.28;;;;;;;;;;5004505;28;20461;-67
2022/08/19 07:36:52;;;;;;;14.82;5.90;;;;;;;;;;5005713;28;20530;-68
2022/08/19 07:39:20;;;;;;;11.32;6.03;;;;;;;;;;5007185;28;20139;-68
2022/08/19 07:41:46;;;;;;;13.45;6.18;;;;;;;;;;5005857;28;20741;-68
2022/08/19 07:44:13;;;;;;;16.73;5.50;;;;;;;;;;5005613;28;20033;-68
2022/08/19 07:46:41;;;;;;;14.73;5.70;;;;;;;;;;5006346;28;21471;-68
2022/08/19 07:49:07;;;;;;;12.25;5.65;;;;;;;;;;5005396;28;20025;-68
2022/08/19 07:51:33;;;;;;;11.23;5.40;;;;;;;;;;5006179;28;20293;-67
2022/08/19 07:53:59;;;;;;;12.10;5.80;;;;;;;;;;5004454;28;20249;-68
2022/08/19 07:56:25;;;;;;;14.40;6.15;;;;;;;;;;5004667;28;20117;-68
2022/08/19 07:58:51;;;;;;;12.13;6.15;;;;;;;;;;5021415;28;20892;-65
2022/08/19 08:01:18;;;;;;;12.52;5.75;;;;;;;;;;5010214;28;20404;-65
2022/08/19 08:09:17;;;;;;;12.57;5.28;;;;;;;;;;5004981;28;20754;-67
2022/08/19 08:11:48;;;;;;;13.40;5.50;;;;;;;;;;5006120;28;20805;-67
2022/08/19 08:14:13;;;;;;;;;;;;;;;;;;5023767;28;20037;-67
2022/08/19 08:16:39;;;;;;;13.57;5.60;;;;;;;;;;5023128;28;19924;-67
2022/08/19 08:19:05;;;;;;;11.77;5.20;;;;;;;;;;5032658;28;20271;-67
2022/08/19 08:21:31;;;;;;;9.93;5.97;;;;;;;;;;5008804;28;20040;-67
2022/08/19 08:23:56;;;;;;;11.38;5.40;;;;;;;;;;5009335;28;20193;-66
2022/08/19 08:26:22;;;;;;;11.77;5.63;;;;;;;;;;5008922;28;20872;-66
2022/08/19 08:28:47;;;;;;;10.80;5.15;;;;;;;;;;5009741;28;20163;-67
2022/08/19 08:31:13;;;;;;;12.15;5.45;;;;;;;;;;5015093;28;20033;-67
2022/08/19 08:33:38;;;;;;;10.98;5.32;;;;;;;;;;5023813;28;20049;-67
2022/08/19 08:36:04;;;;;;;9.90;5.22;;;;;;;;;;5024543;28;20333;-67
2022/08/19 08:38:31;;;;;;;9.90;5.18;;;;;;;;;;5009370;28;20721;-66
2022/08/19 08:41:06;;;;;;;11.57;5.00;;;;;;;;;;5027930;28;20032;-72
2022/08/19 08:43:41;;;;;;;12.50;5.22;;;;;;;;;;5023331;28;20044;-72
2022/08/19 08:46:15;;;;;;;10.32;5.18;;;;;;;;;;5034843;28;20532;-70
2022/08/19 08:48:49;;;;;;;11.88;4.68;;;;;;;;;;5019381;28;20670;-72
2022/08/19 08:51:26;;;;;;;14.98;5.72;;;;;;;;;;5018886;28;20449;-71
2022/08/19 08:53:53;;;;;;;9.63;4.80;;;;;;;;;;5021071;28;20037;-73
2022/08/19 08:56:19;;;;;;;11.77;5.15;;;;;;;;;;5035667;28;20046;-72
2022/08/19 08:58:50;;;;;;;12.02;5.00;;;;;;;;;;5018633;28;20197;-72
2022/08/19 09:01:15;;;;;;;9.47;5.00;;;;;;;;;;5035046;28;20413;-73
2022/08/19 09:03:42;;;;;;;12.93;5.20;;;;;;;;;;5015191;28;20045;-72
2022/08/19 09:06:11;;;;;;;13.90;4.93;;;;;;;;;;5017942;28;20049;-72
2022/08/19 09:08:55;;;;;;;10.77;4.95;;;;;;;;;;5032535;28;20102;-71
2022/08/19 09:11:39;;;;;;;13.10;4.47;;;;;;;;;;5018715;28;20513;-73
2022/08/19 09:14:31;;;;;;;13.00;4.53;;;;;;;;;;5017277;28;20037;-72
2022/08/19 09:16:57;;;;;;;12.10;4.65;;;;;;;;;;5003012;28;20041;-72
2022/08/19 09:19:22;;;;;;;10.30;4.07;;;;;;;;;;5022491;28;20251;-72
2022/08/19 09:21:49;;;;;;;13.05;4.22;;;;;;;;;;5016559;28;20178;-71
2022/08/19 09:24:14;;;;;;;11.93;4.70;;;;;;;;;;5033282;28;20044;-72
2022/08/19 09:26:39;;;;;;;10.30;4.70;;;;;;;;;;5032282;28;20120;-72
2022/08/19 09:29:05;;;;;;;10.35;4.28;;;;;;;;;;5032109;28;20036;-71
2022/08/19 09:31:32;;;;;;;10.35;4.38;;;;;;;;;;5016794;28;20533;-71
2022/08/19 09:33:58;;;;;;;11.15;4.22;;;;;;;;;;5016681;28;20254;-71
2022/08/19 09:36:24;;;;;;;10.00;4.10;;;;;;;;;;5012115;28;20167;-71
2022/08/19 09:38:51;;;;;;;10.95;4.30;;;;;;;;;;5033049;28;20552;-71
2022/08/19 09:41:20;;;;;;;8.77;4.03;;;;;;;;;;5014429;28;20044;-71
2022/08/19 09:43:46;;;;;;;8.10;3.58;;;;;;;;;;5014977;28;20054;-70
2022/08/19 09:46:12;;;;;;;7.53;3.78;;;;;;;;;;5016481;28;20036;-71
2022/08/19 09:48:41;;;;;;;8.27;3.65;;;;;;;;;;5031752;28;20609;-71
2022/08/19 09:51:07;;;;;;;8.13;3.67;;;;;;;;;;5018029;28;20189;-70
2022/08/19 09:53:33;;;;;;;9.77;3.58;;;;;;;;;;5016267;28;20037;-70
2022/08/19 09:55:59;;;;;;;9.65;3.33;;;;;;;;;;5015206;28;20130;-70
2022/08/19 09:58:27;;;;;;;9.40;3.80;;;;;;;;;;5019683;28;20029;-71
2022/08/19 10:00:53;;;;;;;8.98;4.03;;;;;;;;;;5028061;28;20144;-69
2022/08/19 10:03:18;;;;;;;10.73;4.22;;;;;;;;;;5014530;28;20090;-71
2022/08/19 10:05:50;;;;;;;6.82;3.45;;;;;;;;;;5010246;28;20764;-71
2022/08/19 10:08:15;;;;;;;;;;;;;;;;;;5024078;28;20475;-71
2022/08/19 10:10:45;;;;;;;8.67;3.77;;;;;;;;;;5012186;28;19917;-71
2022/08/19 10:13:11;;;;;;;11.70;4.32;;;;;;;;;;5012681;28;20733;-71
2022/08/19 10:15:39;;;;;;;9.35;4.05;;;;;;;;;;5013007;28;20044;-71
2022/08/19 10:18:04;;;;;;;6.53;3.88;;;;;;;;;;5013286;28;20573;-73
2022/08/19 10:20:29;;;;;;;11.05;4.38;;;;;;;;;;5025657;28;20190;-71
2022/08/19 10:22:55;;;;;;;7.88;3.85;;;;;;;;;;5024975;28;20443;-70
2022/08/19 10:25:20;;;;;;;6.63;3.50;;;;;;;;;;5013086;28;20480;-73
2022/08/19 10:27:45;;;;;;;9.15;3.80;;;;;;;;;;5026769;28;20054;-70
2022/08/19 10:30:11;;;;;;;6.60;3.70;;;;;;;;;;5008985;28;20396;-71
2022/08/19 10:32:37;;;;;;;7.97;3.55;;;;;;;;;;5015068;28;20047;-70
2022/08/19 10:35:05;;;;;;;9.15;3.60;;;;;;;;;;5012604;28;20120;-70
2022/08/19 10:37:32;;;;;;;8.15;3.95;;;;;;;;;;5011569;28;20095;-69
2022/08/19 10:39:58;;;;;;;8.27;4.00;;;;;;;;;;5029326;28;20036;-71
2022/08/19 10:42:23;;;;;;;9.38;3.30;;;;;;;;;;5029286;28;20036;-70
2022/08/19 10:44:48;;;;;;;7.18;3.45;;;;;;;;;;5045606;28;20360;-71
2022/08/19 10:47:14;;;;;;;7.15;3.72;;;;;;;;;;5028693;28;20116;-72
2022/08/19 10:52:33;;;;;;;7.47;3.60;;;;;;;;;;5010423;28;20033;-71
2022/08/19 10:52:33;;;;;;;7.53;4.07;;;;;;;;;;5014937;28;20032;-71
2022/08/19 10:57:47;;;;;;;5.78;4.13;;;;;;;;;;5015898;28;20414;-70
2022/08/19 11:00:13;;;;;;;7.63;3.65;;;;;;;;;;5027125;28;20118;-71
2022/08/19 11:02:38;;;;;;;9.60;4.30;;;;;;;;;;5012291;28;20029;-72
2022/08/19 11:05:05;;;;;;;7.63;4.05;;;;;;;;;;5013145;28;20571;-71
2022/08/19 11:07:30;;;;;;;7.32;4.07;;;;;;;;;;5019298;28;20580;-71
2022/08/19 11:09:56;;;;;;;7.88;3.80;;;;;;;;;;5012429;28;20063;-71
2022/08/19 11:12:21;;;;;;;6.22;3.83;;;;;;;;;;5013458;28;20025;-71
2022/08/19 11:14:49;;;;;;;8.15;3.60;;;;;;;;;;5022943;28;20033;-71
2022/08/19 11:17:15;;;;;;;7.03;3.97;;;;;;;;;;5022237;28;20041;-71
2022/08/19 11:19:42;;;;;;;8.20;3.63;;;;;;;;;;5013236;28;20118;-70
2022/08/19 11:22:09;;;;;;;10.13;4.38;;;;;;;;;;5017307;28;20069;-71
2022/08/19 11:24:35;;;;;;;8.30;4.38;;;;;;;;;;5012480;28;20091;-68
2022/08/19 11:27:02;;;;;;;10.43;3.80;;;;;;;;;;5016957;28;20103;-71
2022/08/19 11:29:27;;;;;;;7.10;3.90;;;;;;;;;;5012706;28;20471;-69
2022/08/19 11:31:53;;;;;;;9.20;3.88;;;;;;;;;;5014297;28;20075;-71
2022/08/19 11:34:20;;;;;;;8.02;3.53;;;;;;;;;;5012374;28;20048;-71
2022/08/19 11:36:47;;;;;;;6.03;3.30;;;;;;;;;;5012620;28;20533;-71
2022/08/19 11:39:14;;;;;;;8.35;3.78;;;;;;;;;;5013884;28;21729;-69
2022/08/19 11:41:40;;;;;;;7.22;3.97;;;;;;;;;;5013132;28;20032;-70
2022/08/19 11:44:07;;;;;;;10.93;3.95;;;;;;;;;;5007628;28;20832;-70
2022/08/19 11:46:33;;;;;;;6.90;3.42;;;;;;;;;;5028460;28;20673;-71
2022/08/19 11:49:00;;;;;;;5.95;4.05;;;;;;;;;;5012970;28;20056;-71
2022/08/19 11:51:26;;;;;;;7.78;4.00;;;;;;;;;;5018187;28;20128;-71
2022/08/19 11:53:55;;;;;;;8.68;4.38;;;;;;;;;;5015482;28;20509;-71
2022/08/19 11:56:20;;;;;;;10.48;3.88;;;;;;;;;;5025842;28;20076;-71
2022/08/19 11:58:46;;;;;;;8.18;3.47;;;;;;;;;;5016760;28;20032;-71
2022/08/19 12:01:14;;;;;;;6.85;3.83;;;;;;;;;;5014364;28;20513;-71
2022/08/19 12:03:40;;;;;;;6.72;3.42;;;;;;;;;;5016820;28;20052;-70
2022/08/19 12:06:07;;;;;;;6.22;3.17;;;;;;;;;;5015515;28;20557;-70
2022/08/19 12:08:32;;;;;;;7.78;3.97;;;;;;;;;;5015672;28;20037;-69
2022/08/19 12:11:00;;;;;;;8.07;2.95;;;;;;;;;;5020666;28;20040;-70
2022/08/19 12:13:26;;;;;;;8.63;3.90;;;;;;;;;;5015933;28;20604;-70
2022/08/19 12:15:52;;;;;;;6.93;2.97;;;;;;;;;;5018307;28;20055;-71
2022/08/19 12:18:17;;;;;;;6.32;3.38;;;;;;;;;;5015946;28;20601;-70
2022/08/19 12:20:42;;;;;;;8.15;3.30;;;;;;;;;;5029043;28;20257;-70
2022/08/19 12:23:12;;;;;;;6.15;3.00;;;;;;;;;;5016554;28;20576;-70
2022/08/19 12:25:51;;;;;;;7.57;3.75;;;;;;;;;;5018095;28;20057;-71
2022/08/19 12:28:17;;;;;;;7.88;3.33;;;;;;;;;;5030435;28;20033;-69
2022/08/19 12:30:42;;;;;;;5.28;3.10;;;;;;;;;;5017994;28;20036;-70
2022/08/19 12:33:07;;;;;;;7.80;3.50;;;;;;;;;;5013262;28;20037;-70
2022/08/19 12:35:33;;;;;;;7.95;4.03;;;;;;;;;;5025336;28;20206;-69
2022/08/19 12:38:02;;;;;;;8.75;3.67;;;;;;;;;;5017421;28;20059;-70
2022/08/19 12:40:28;;;;;;;7.20;3.40;;;;;;;;;;5027478;28;20040;-68
2022/08/19 12:42:54;;;;;;;8.10;3.78;;;;;;;;;;5018675;28;20443;-69
2022/08/19 12:45:19;;;;;;;5.45;3.00;;;;;;;;;;5025122;28;20047;-69
2022/08/19 12:47:46;;;;;;;6.05;3.22;;;;;;;;;;5017087;28;20037;-70
2022/08/19 12:50:11;;;;;;;7.13;3.50;;;;;;;;;;5020495;28;20424;-69
2022/08/19 12:52:36;;;;;;;7.10;3.17;;;;;;;;;;5019197;28;20029;-69
2022/08/19 12:55:03;;;;;;;6.63;3.03;;;;;;;;;;5018104;28;20156;-70
2022/08/19 12:57:28;;;;;;;5.60;2.70;;;;;;;;;;5015874;28;20029;-69
2022/08/19 12:59:55;;;;;;;5.70;3.00;;;;;;;;;;5014957;28;20060;-70
2022/08/19 13:02:21;;;;;;;7.22;3.60;;;;;;;;;;5014368;28;20634;-70
2022/08/19 13:04:46;;;;;;;8.85;2.92;;;;;;;;;;5015497;28;20041;-70
2022/08/19 13:07:12;;;;;;;7.28;2.78;;;;;;;;;;5013815;28;20511;-70
2022/08/19 13:09:37;;;;;;;7.00;3.65;;;;;;;;;;5020610;28;20409;-70
2022/08/19 13:12:06;;;;;;;9.75;3.10;;;;;;;;;;5029875;28;20238;-69
2022/08/19 13:14:32;;;;;;;6.80;3.33;;;;;;;;;;5014865;28;20434;-69
2022/08/19 13:16:58;;;;;;;9.35;3.10;;;;;;;;;;5013579;28;20529;-71
2022/08/19 13:19:24;;;;;;;6.20;2.90;;;;;;;;;;5031715;28;20053;-70
2022/08/19 13:21:50;;;;;;;5.28;2.60;;;;;;;;;;5030454;28;20048;-70
2022/08/19 13:24:15;;;;;;;5.63;2.53;;;;;;;;;;5014173;28;20036;-71
2022/08/19 13:26:41;;;;;;;4.82;2.40;;;;;;;;;;5013103;28;20047;-71
2022/08/19 13:34:35;;;;;;;3.78;2.30;;;;;;;;;;5034927;28;20198;-71
2022/08/19 13:37:02;;;;;;;5.18;2.40;;;;;;;;;;5034616;28;20048;-71
2022/08/19 13:39:28;;;;;;;4.20;2.25;;;;;;;;;;5012402;28;20033;-70
2022/08/19 13:41:53;;;;;;;6.07;2.42;;;;;;;;;;5006652;28;20091;-71
2022/08/19 13:44:19;;;;;;;4.93;2.00;;;;;;;;;;5012604;28;20461;-71
2022/08/19 13:46:45;;;;;;;4.93;2.30;;;;;;;;;;5012090;28;20140;-71
2022/08/19 13:49:12;;;;;;;5.45;2.20;;;;;;;;;;5043145;28;20025;-71
2022/08/19 13:51:39;;;;;;;6.63;2.53;;;;;;;;;;5011812;28;20241;-70
2022/08/19 13:54:05;;;;;;;5.68;2.80;;;;;;;;;;5012253;28;20040;-71
2022/08/19 13:56:30;;;;;;;4.70;2.53;;;;;;;;;;5009446;28;20040;-71
2022/08/19 13:58:57;;;;;;;9.07;2.83;;;;;;;;;;5025718;28;20144;-71
2022/08/19 14:01:22;;;;;;;4.68;2.45;;;;;;;;;;5029742;28;20132;-71
2022/08/19 14:03:48;;;;;;;7.70;2.70;;;;;;;;;;5010720;28;20045;-71
2022/08/19 14:06:13;;;;;;;6.15;2.75;;;;;;;;;;5013232;28;20044;-69
2022/08/19 14:08:41;;;;;;;4.45;2.50;;;;;;;;;;5013574;28;20407;-70
2022/08/19 14:11:07;;;;;;;6.25;2.22;;;;;;;;;;5013114;28;20111;-70
2022/08/19 14:13:33;;;;;;;7.70;2.50;;;;;;;;;;5025244;28;20478;-70
2022/08/19 14:15:59;;;;;;;7.43;2.53;;;;;;;;;;5009200;28;20048;-71
2022/08/19 14:18:24;;;;;;;6.25;2.50;;;;;;;;;;5008550;28;20175;-70
2022/08/19 14:20:50;;;;;;;4.80;2.50;;;;;;;;;;5007066;28;20079;-70
2022/08/19 14:23:15;;;;;;;6.18;2.40;;;;;;;;;;5009470;28;20471;-70
2022/08/19 14:25:41;;;;;;;5.82;2.42;;;;;;;;;;5008214;28;20611;-68
2022/08/19 14:28:07;;;;;;;6.13;2.40;;;;;;;;;;5009485;28;20091;-70
2022/08/19 14:30:34;;;;;;;5.75;2.28;;;;;;;;;;5007449;28;20061;-67
2022/08/19 14:33:00;;;;;;;7.28;2.33;;;;;;;;;;5008040;28;22465;-68
2022/08/19 14:35:27;;;;;;;7.00;2.70;;;;;;;;;;5005681;28;20501;-70
2022/08/19 14:37:57;;;;;;;5.88;2.40;;;;;;;;;;5008611;28;20032;-70
2022/08/19 14:40:28;;;;;;;5.70;1.98;;;;;;;;;;5005643;28;20029;-70
2022/08/19 14:42:58;;;;;;;;;;;;;;;;;;5010196;28;20151;-70
2022/08/19 14:45:24;;;;;;;3.80;1.75;;;;;;;;;;5007647;28;19916;-70
2022/08/19 14:47:50;;;;;;;4.40;1.65;;;;;;;;;;5010755;28;20134;-71
2022/08/19 14:50:15;;;;;;;2.78;1.70;;;;;;;;;;5021513;28;20041;-70